Time;durP1;ratioP1;P1;durP2;ratioP2;P2;SDS_P1;SDS_P2;PMS_P1;PMS_P2;Temp;Humidity;BMP_temperature;BMP_pressure;BME280_temperature;BME280_humidity;BME280_pressure;Samples;Min_cycle;Max_cycle;Signal;HPM_P1;HPM_P2
2022/01/31 00:01:32;;;;;;;7.18;1.85;;;;;;;;;;5013200;28;20030;-46
2022/01/31 00:03:58;;;;;;;11.18;2.08;;;;;;;;;;5013487;28;20096;-46
2022/01/31 00:06:23;;;;;;;15.35;2.35;;;;;;;;;;5013485;28;20458;-44
2022/01/31 00:08:50;;;;;;;11.48;2.58;;;;;;;;;;5013330;28;20026;-47
2022/01/31 00:11:16;;;;;;;9.68;1.98;;;;;;;;;;5011423;28;20381;-47
2022/01/31 00:13:45;;;;;;;14.32;3.17;;;;;;;;;;5011569;28;20033;-47
2022/01/31 00:16:16;;;;;;;9.77;1.52;;;;;;;;;;5011888;28;20553;-47
2022/01/31 00:18:41;;;;;;;11.10;2.70;;;;;;;;;;5012757;28;20068;-45
2022/01/31 00:21:07;;;;;;;8.20;1.98;;;;;;;;;;5013225;28;20042;-46
2022/01/31 00:23:33;;;;;;;10.45;2.40;;;;;;;;;;5013087;28;20038;-46
2022/01/31 00:25:58;;;;;;;12.80;2.03;;;;;;;;;;5013205;28;20025;-45
2022/01/31 00:28:24;;;;;;;14.98;2.38;;;;;;;;;;5013385;28;20071;-45
2022/01/31 00:30:49;;;;;;;12.48;1.95;;;;;;;;;;5012229;28;20053;-47
2022/01/31 00:33:15;;;;;;;14.73;1.90;;;;;;;;;;5011535;28;20077;-45
2022/01/31 00:35:40;;;;;;;9.57;2.00;;;;;;;;;;5012511;28;20030;-47
2022/01/31 00:38:06;;;;;;;19.38;2.92;;;;;;;;;;5012483;28;20045;-46
2022/01/31 00:40:32;;;;;;;13.82;2.53;;;;;;;;;;5012766;28;20032;-47
2022/01/31 00:42:58;;;;;;;16.25;2.88;;;;;;;;;;5012274;28;20049;-45
2022/01/31 00:45:28;;;;;;;12.63;2.28;;;;;;;;;;5012855;28;20033;-45
2022/01/31 00:48:06;;;;;;;5.40;1.92;;;;;;;;;;5013129;28;20076;-45
2022/01/31 00:50:39;;;;;;;11.50;1.85;;;;;;;;;;5012748;28;20022;-45
2022/01/31 00:53:05;;;;;;;15.05;1.90;;;;;;;;;;5013084;28;20029;-45
2022/01/31 00:55:30;;;;;;;11.68;2.10;;;;;;;;;;5012826;28;20363;-46
2022/01/31 00:57:56;;;;;;;13.13;2.22;;;;;;;;;;5012744;28;20025;-47
2022/01/31 01:00:21;;;;;;;12.05;2.20;;;;;;;;;;5012760;28;20029;-46
2022/01/31 01:02:48;;;;;;;11.85;2.25;;;;;;;;;;5011779;28;20049;-47
2022/01/31 01:05:14;;;;;;;18.75;3.03;;;;;;;;;;5011977;28;20076;-47
2022/01/31 01:07:45;;;;;;;11.25;2.75;;;;;;;;;;5012742;28;20030;-46
2022/01/31 01:10:12;;;;;;;16.95;2.00;;;;;;;;;;5012761;28;20060;-46
2022/01/31 01:12:37;;;;;;;15.50;2.58;;;;;;;;;;5012574;28;20524;-46
2022/01/31 01:15:03;;;;;;;21.55;3.00;;;;;;;;;;5012922;28;20053;-46
2022/01/31 01:17:28;;;;;;;12.65;2.47;;;;;;;;;;5011730;28;20394;-45
2022/01/31 01:19:54;;;;;;;9.10;1.98;;;;;;;;;;5012591;28;20385;-46
2022/01/31 01:22:19;;;;;;;11.15;2.25;;;;;;;;;;5012465;28;20026;-47
2022/01/31 01:24:47;;;;;;;12.50;2.50;;;;;;;;;;5012495;28;20048;-45
2022/01/31 01:27:14;;;;;;;12.60;2.70;;;;;;;;;;5012773;28;20156;-45
2022/01/31 01:29:40;;;;;;;7.50;1.60;;;;;;;;;;5012480;28;20026;-46
2022/01/31 01:32:06;;;;;;;5.68;1.58;;;;;;;;;;5012388;28;20494;-46
2022/01/31 01:34:33;;;;;;;12.27;2.47;;;;;;;;;;5012690;28;20030;-46
2022/01/31 01:37:00;;;;;;;8.77;1.63;;;;;;;;;;5012700;28;20030;-47
2022/01/31 01:39:26;;;;;;;12.43;2.20;;;;;;;;;;5012351;28;20025;-48
2022/01/31 01:41:52;;;;;;;10.98;2.08;;;;;;;;;;5012410;28;20030;-47
2022/01/31 01:44:17;;;;;;;11.85;2.08;;;;;;;;;;5012529;28;20033;-46
2022/01/31 01:46:43;;;;;;;19.67;2.28;;;;;;;;;;5012195;28;20033;-47
2022/01/31 01:49:08;;;;;;;6.63;1.80;;;;;;;;;;5012312;28;20061;-44
2022/01/31 01:51:34;;;;;;;14.75;2.22;;;;;;;;;;5012314;28;20061;-45
2022/01/31 01:54:00;;;;;;;14.13;2.53;;;;;;;;;;5012236;28;20018;-46
2022/01/31 01:56:25;;;;;;;10.93;2.08;;;;;;;;;;5012504;28;20026;-46
2022/01/31 01:58:51;;;;;;;9.63;2.28;;;;;;;;;;5012410;28;20493;-47
2022/01/31 02:01:16;;;;;;;6.20;1.70;;;;;;;;;;5012190;28;20024;-47
2022/01/31 02:03:42;;;;;;;8.25;1.95;;;;;;;;;;5012434;28;20041;-47
2022/01/31 02:06:08;;;;;;;8.75;2.17;;;;;;;;;;5012429;28;20054;-47
2022/01/31 02:08:42;;;;;;;9.38;2.53;;;;;;;;;;5012011;28;20033;-47
2022/01/31 02:11:09;;;;;;;19.90;2.90;;;;;;;;;;5014477;28;20045;-47
2022/01/31 02:13:36;;;;;;;7.03;2.45;;;;;;;;;;5015620;28;20477;-47
2022/01/31 02:16:03;;;;;;;4.55;1.10;;;;;;;;;;5015602;28;20033;-46
2022/01/31 02:18:30;;;;;;;8.02;1.90;;;;;;;;;;5015452;28;20044;-47
2022/01/31 02:20:55;;;;;;;18.40;2.15;;;;;;;;;;5015391;28;20235;-46
2022/01/31 02:23:21;;;;;;;10.80;2.00;;;;;;;;;;5015746;28;20223;-46
2022/01/31 02:25:58;;;;;;;9.65;2.00;;;;;;;;;;5015419;28;20045;-47
2022/01/31 02:28:26;;;;;;;7.82;1.83;;;;;;;;;;5015626;28;20034;-47
2022/01/31 02:30:52;;;;;;;14.50;1.70;;;;;;;;;;5015085;28;20048;-47
2022/01/31 02:33:21;;;;;;;14.98;2.47;;;;;;;;;;5015310;28;20025;-48
2022/01/31 02:35:52;;;;;;;10.00;1.77;;;;;;;;;;5015135;28;20418;-47
2022/01/31 02:38:18;;;;;;;14.00;3.22;;;;;;;;;;5015259;28;20032;-46
2022/01/31 02:40:45;;;;;;;8.55;2.03;;;;;;;;;;5015153;28;20022;-46
2022/01/31 02:43:20;;;;;;;6.75;1.75;;;;;;;;;;5014888;28;20034;-47
2022/01/31 02:45:47;;;;;;;13.90;2.13;;;;;;;;;;5015085;28;20030;-48
2022/01/31 02:48:15;;;;;;;12.70;2.45;;;;;;;;;;5014970;28;20485;-46
2022/01/31 02:50:40;;;;;;;10.85;2.72;;;;;;;;;;5015511;28;20378;-46
2022/01/31 02:53:14;;;;;;;17.98;2.55;;;;;;;;;;5015103;28;20018;-47
2022/01/31 02:55:43;;;;;;;12.75;2.60;;;;;;;;;;5014871;28;20029;-45
2022/01/31 02:58:09;;;;;;;8.50;1.67;;;;;;;;;;5015152;28;20105;-46
2022/01/31 03:00:36;;;;;;;13.02;2.35;;;;;;;;;;5015066;28;20054;-46
2022/01/31 03:03:02;;;;;;;15.63;2.03;;;;;;;;;;5014667;28;20502;-47
2022/01/31 03:05:28;;;;;;;11.20;2.38;;;;;;;;;;5014629;28;20030;-47
2022/01/31 03:07:53;;;;;;;13.70;2.08;;;;;;;;;;5014604;28;20026;-47
2022/01/31 03:10:19;;;;;;;12.68;2.22;;;;;;;;;;5014568;28;20026;-47
2022/01/31 03:12:44;;;;;;;13.65;2.17;;;;;;;;;;5014559;28;20037;-46
2022/01/31 03:15:10;;;;;;;8.45;2.05;;;;;;;;;;5014787;28;20053;-46
2022/01/31 03:17:35;;;;;;;9.77;2.50;;;;;;;;;;5014608;28;20026;-46
2022/01/31 03:20:01;;;;;;;11.07;3.13;;;;;;;;;;5014653;28;20369;-45
2022/01/31 03:22:27;;;;;;;15.23;2.80;;;;;;;;;;5013506;28;20033;-48
2022/01/31 03:24:52;;;;;;;18.33;3.08;;;;;;;;;;5014608;28;20026;-46
2022/01/31 03:27:18;;;;;;;11.32;1.85;;;;;;;;;;5014459;28;20026;-46
2022/01/31 03:29:43;;;;;;;12.65;2.22;;;;;;;;;;5014135;28;20036;-46
2022/01/31 03:32:09;;;;;;;11.77;2.28;;;;;;;;;;5013926;28;20041;-46
2022/01/31 03:34:34;;;;;;;12.50;2.20;;;;;;;;;;5014415;28;20069;-45
2022/01/31 03:37:00;;;;;;;10.35;2.53;;;;;;;;;;5014135;28;20542;-45
2022/01/31 03:39:26;;;;;;;10.90;1.95;;;;;;;;;;5013917;28;20108;-46
2022/01/31 03:41:51;;;;;;;9.82;2.20;;;;;;;;;;5014044;28;20030;-45
2022/01/31 03:44:17;;;;;;;16.88;2.50;;;;;;;;;;5013918;28;20064;-46
2022/01/31 03:46:42;;;;;;;4.57;1.40;;;;;;;;;;5014197;28;20030;-46
2022/01/31 03:49:08;;;;;;;4.63;1.27;;;;;;;;;;5014133;28;20466;-45
2022/01/31 03:51:33;;;;;;;7.15;1.60;;;;;;;;;;5013760;28;20474;-46
2022/01/31 03:53:58;;;;;;;9.85;2.22;;;;;;;;;;5013743;28;20342;-47
2022/01/31 03:56:24;;;;;;;11.77;2.40;;;;;;;;;;5014014;28;20117;-46
2022/01/31 03:58:49;;;;;;;13.13;2.13;;;;;;;;;;5013781;28;20083;-46
2022/01/31 04:01:15;;;;;;;13.10;2.22;;;;;;;;;;5013903;28;20099;-46
2022/01/31 04:03:40;;;;;;;11.68;2.13;;;;;;;;;;5013753;28;20036;-46
2022/01/31 04:06:06;;;;;;;10.63;1.73;;;;;;;;;;5013671;28;20040;-45
2022/01/31 04:08:32;;;;;;;7.53;2.45;;;;;;;;;;5013493;28;20036;-46
2022/01/31 04:10:57;;;;;;;5.55;2.00;;;;;;;;;;5013482;28;20120;-45
2022/01/31 04:13:23;;;;;;;14.25;2.63;;;;;;;;;;5013410;28;20022;-46
2022/01/31 04:15:48;;;;;;;16.33;3.58;;;;;;;;;;5013766;28;20080;-46
2022/01/31 04:18:14;;;;;;;11.18;2.40;;;;;;;;;;5013586;28;20529;-47
2022/01/31 04:20:40;;;;;;;12.10;2.53;;;;;;;;;;5013575;28;20022;-48
2022/01/31 04:23:10;;;;;;;17.10;3.22;;;;;;;;;;5013491;28;20042;-47
2022/01/31 04:25:52;;;;;;;14.85;2.38;;;;;;;;;;5013200;28;20545;-46
2022/01/31 04:28:31;;;;;;;20.42;2.83;;;;;;;;;;5013559;28;20056;-46
2022/01/31 04:31:14;;;;;;;13.98;2.67;;;;;;;;;;5013011;28;20042;-45
2022/01/31 04:33:41;;;;;;;13.48;2.42;;;;;;;;;;5013101;28;20021;-46
2022/01/31 04:36:09;;;;;;;9.82;2.80;;;;;;;;;;5012998;28;20540;-47
2022/01/31 04:38:35;;;;;;;8.85;1.98;;;;;;;;;;5013020;28;20466;-46
2022/01/31 04:41:00;;;;;;;14.50;2.55;;;;;;;;;;5013033;28;20029;-48
2022/01/31 04:43:26;;;;;;;9.18;1.95;;;;;;;;;;5012930;28;20156;-46
2022/01/31 04:45:53;;;;;;;12.80;2.25;;;;;;;;;;5013187;28;20038;-46
2022/01/31 04:48:20;;;;;;;17.48;3.03;;;;;;;;;;5013144;28;20054;-46
2022/01/31 04:50:46;;;;;;;11.13;2.33;;;;;;;;;;5012923;28;20088;-47
2022/01/31 04:53:12;;;;;;;13.93;2.78;;;;;;;;;;5012887;28;20605;-48
2022/01/31 04:55:38;;;;;;;15.18;2.50;;;;;;;;;;5011565;28;20469;-46
2022/01/31 04:58:04;;;;;;;13.55;2.90;;;;;;;;;;5012738;28;20036;-46
2022/01/31 05:00:30;;;;;;;13.90;2.75;;;;;;;;;;5012794;28;20022;-46
2022/01/31 05:02:56;;;;;;;13.15;2.70;;;;;;;;;;5012950;28;20116;-46
2022/01/31 05:05:21;;;;;;;9.95;2.55;;;;;;;;;;5013047;28;20029;-46
2022/01/31 05:07:48;;;;;;;19.95;2.72;;;;;;;;;;5012767;28;20026;-47
2022/01/31 05:10:13;;;;;;;11.57;2.20;;;;;;;;;;5012837;28;20041;-46
2022/01/31 05:12:41;;;;;;;11.23;2.25;;;;;;;;;;5013053;28;20029;-47
2022/01/31 05:15:07;;;;;;;14.25;2.08;;;;;;;;;;5012626;28;20030;-47
2022/01/31 05:17:32;;;;;;;10.35;2.25;;;;;;;;;;5012499;28;20057;-46
2022/01/31 05:19:57;;;;;;;11.57;2.50;;;;;;;;;;5012650;28;20014;-46
2022/01/31 05:22:23;;;;;;;21.98;2.90;;;;;;;;;;5012605;28;20068;-47
2022/01/31 05:24:49;;;;;;;18.27;3.13;;;;;;;;;;5012563;28;20030;-47
2022/01/31 05:27:14;;;;;;;18.58;2.92;;;;;;;;;;5012528;28;20354;-47
2022/01/31 05:29:40;;;;;;;8.02;1.77;;;;;;;;;;5012436;28;20101;-47
2022/01/31 05:32:06;;;;;;;18.52;2.53;;;;;;;;;;5012120;28;20042;-48
2022/01/31 05:34:31;;;;;;;7.20;1.90;;;;;;;;;;5012453;28;20105;-50
2022/01/31 05:36:57;;;;;;;13.32;2.25;;;;;;;;;;5012433;28;20122;-47
2022/01/31 05:39:24;;;;;;;11.85;2.63;;;;;;;;;;5012436;28;20022;-46
2022/01/31 05:41:50;;;;;;;12.43;3.28;;;;;;;;;;5012390;28;20109;-46
2022/01/31 05:44:16;;;;;;;12.88;2.70;;;;;;;;;;5012470;28;20104;-46
2022/01/31 05:46:42;;;;;;;14.73;2.63;;;;;;;;;;5015307;28;20454;-47
2022/01/31 05:49:07;;;;;;;14.95;2.22;;;;;;;;;;5016324;28;20072;-46
2022/01/31 05:51:33;;;;;;;6.18;1.15;;;;;;;;;;5016146;28;20354;-46
2022/01/31 05:53:58;;;;;;;12.20;2.38;;;;;;;;;;5015798;28;20390;-46
2022/01/31 05:56:24;;;;;;;18.73;2.78;;;;;;;;;;5016099;28;20101;-45
2022/01/31 05:58:50;;;;;;;12.65;2.95;;;;;;;;;;5015877;28;20488;-45
2022/01/31 06:01:16;;;;;;;10.65;1.88;;;;;;;;;;5015788;28;20605;-45
2022/01/31 06:03:42;;;;;;;10.77;2.55;;;;;;;;;;5015715;28;20462;-46
2022/01/31 06:06:08;;;;;;;17.83;2.10;;;;;;;;;;5015670;28;20032;-50
2022/01/31 06:08:33;;;;;;;12.10;2.15;;;;;;;;;;5014408;28;20091;-46
2022/01/31 06:10:59;;;;;;;11.63;2.17;;;;;;;;;;5015935;28;20040;-47
2022/01/31 06:13:28;;;;;;;13.80;2.70;;;;;;;;;;5015587;28;20030;-49
2022/01/31 06:15:54;;;;;;;10.05;2.38;;;;;;;;;;5015784;28;20090;-48
2022/01/31 06:18:19;;;;;;;7.93;2.05;;;;;;;;;;5015535;28;20030;-48
2022/01/31 06:20:45;;;;;;;8.63;2.20;;;;;;;;;;5015724;28;20107;-48
2022/01/31 06:23:11;;;;;;;7.70;2.40;;;;;;;;;;5015340;28;20463;-46
2022/01/31 06:25:38;;;;;;;8.18;1.85;;;;;;;;;;5015692;28;20370;-48
2022/01/31 06:28:05;;;;;;;6.93;1.83;;;;;;;;;;5015435;28;20049;-46
2022/01/31 06:30:31;;;;;;;3.97;1.90;;;;;;;;;;5015009;28;20494;-48
2022/01/31 06:32:57;;;;;;;6.57;2.45;;;;;;;;;;5015591;28;20034;-47
2022/01/31 06:35:24;;;;;;;6.18;1.80;;;;;;;;;;5015398;28;20520;-48
2022/01/31 06:37:49;;;;;;;7.10;2.20;;;;;;;;;;5013991;28;20026;-45
2022/01/31 06:40:15;;;;;;;12.18;2.47;;;;;;;;;;5015069;28;20379;-46
2022/01/31 06:42:40;;;;;;;10.40;2.00;;;;;;;;;;5015023;28;20088;-46
2022/01/31 06:45:06;;;;;;;8.73;2.17;;;;;;;;;;5013633;28;20037;-45
2022/01/31 06:47:32;;;;;;;14.60;2.65;;;;;;;;;;5013486;28;20022;-44
2022/01/31 06:49:59;;;;;;;12.60;2.83;;;;;;;;;;5014366;28;20113;-45
2022/01/31 06:52:26;;;;;;;9.00;1.77;;;;;;;;;;5014545;28;20030;-47
2022/01/31 06:54:52;;;;;;;6.03;2.15;;;;;;;;;;5014812;28;20030;-51
2022/01/31 06:57:18;;;;;;;8.88;2.25;;;;;;;;;;5013949;28;20030;-46
2022/01/31 06:59:44;;;;;;;10.60;2.40;;;;;;;;;;5014442;28;20113;-45
2022/01/31 07:02:10;;;;;;;15.13;2.38;;;;;;;;;;5014486;28;20049;-40
2022/01/31 07:04:35;;;;;;;9.82;1.90;;;;;;;;;;5010889;28;20026;-40
2022/01/31 07:07:03;;;;;;;13.25;3.72;;;;;;;;;;5006628;28;20037;-40
2022/01/31 07:09:28;;;;;;;6.75;2.03;;;;;;;;;;5009771;28;20025;-40
2022/01/31 07:11:58;;;;;;;13.55;2.42;;;;;;;;;;5009818;28;20112;-42
2022/01/31 07:14:32;;;;;;;11.43;2.67;;;;;;;;;;5004917;28;20627;-41
2022/01/31 07:17:05;;;;;;;9.90;2.40;;;;;;;;;;5002762;28;20110;-49
2022/01/31 07:19:34;;;;;;;11.35;2.45;;;;;;;;;;4999318;28;20434;-41
2022/01/31 07:22:00;;;;;;;9.18;2.83;;;;;;;;;;4994685;28;20033;-45
2022/01/31 07:24:42;;;;;;;7.65;2.30;;;;;;;;;;4994765;28;20030;-39
2022/01/31 07:27:08;;;;;;;8.48;2.40;;;;;;;;;;4994778;28;20042;-39
2022/01/31 07:29:33;;;;;;;10.85;3.10;;;;;;;;;;4994537;28;20024;-44
2022/01/31 07:32:00;;;;;;;13.07;2.42;;;;;;;;;;4994439;28;20058;-45
2022/01/31 07:34:26;;;;;;;10.05;2.15;;;;;;;;;;4994462;28;20105;-44
2022/01/31 07:36:52;;;;;;;11.25;2.35;;;;;;;;;;4994778;28;20487;-49
2022/01/31 07:39:18;;;;;;;11.13;2.20;;;;;;;;;;4994383;28;20030;-43
2022/01/31 07:41:44;;;;;;;9.73;2.63;;;;;;;;;;4994420;28;20378;-41
2022/01/31 07:44:11;;;;;;;10.95;2.22;;;;;;;;;;4993714;28;20034;-48
2022/01/31 07:46:36;;;;;;;12.95;2.80;;;;;;;;;;4991601;28;20023;-41
2022/01/31 07:49:03;;;;;;;8.52;2.78;;;;;;;;;;4994077;28;20109;-53
2022/01/31 07:51:29;;;;;;;7.15;2.22;;;;;;;;;;4994144;28;20029;-41
2022/01/31 07:53:55;;;;;;;8.77;2.65;;;;;;;;;;4993971;28;20034;-45
2022/01/31 07:56:20;;;;;;;6.97;2.30;;;;;;;;;;4994216;28;20041;-44
2022/01/31 07:58:46;;;;;;;8.55;1.88;;;;;;;;;;4993936;28;20390;-49
2022/01/31 08:01:12;;;;;;;11.73;3.00;;;;;;;;;;4993885;28;20038;-43
2022/01/31 08:03:38;;;;;;;7.55;2.83;;;;;;;;;;4992730;28;20081;-48
2022/01/31 08:06:04;;;;;;;8.90;2.40;;;;;;;;;;4992119;28;20466;-41
2022/01/31 08:08:31;;;;;;;10.30;2.50;;;;;;;;;;4991948;28;20025;-47
2022/01/31 08:10:57;;;;;;;6.63;2.00;;;;;;;;;;4992143;28;20076;-42
2022/01/31 08:13:25;;;;;;;9.88;2.65;;;;;;;;;;4992329;28;20022;-44
2022/01/31 08:16:03;;;;;;;9.43;2.00;;;;;;;;;;4992599;28;20034;-48
2022/01/31 08:18:29;;;;;;;13.15;3.22;;;;;;;;;;4992482;28;20041;-42
2022/01/31 08:20:55;;;;;;;9.75;2.10;;;;;;;;;;4992050;28;20433;-46
2022/01/31 08:23:20;;;;;;;9.43;2.53;;;;;;;;;;4992078;28;20437;-40
2022/01/31 08:25:48;;;;;;;9.55;2.00;;;;;;;;;;4990538;28;20512;-48
2022/01/31 08:28:15;;;;;;;8.40;2.00;;;;;;;;;;4992290;28;20038;-48
2022/01/31 08:33:25;;;;;;;14.35;2.40;;;;;;;;;;4993710;28;20592;-47
2022/01/31 08:35:51;;;;;;;9.27;2.40;;;;;;;;;;4993158;28;20034;-48
2022/01/31 08:38:18;;;;;;;12.02;2.60;;;;;;;;;;4992968;28;20474;-42
2022/01/31 08:40:45;;;;;;;7.22;1.95;;;;;;;;;;4993354;28;20077;-48
2022/01/31 08:43:12;;;;;;;8.38;2.08;;;;;;;;;;4991752;28;20030;-47
2022/01/31 08:45:37;;;;;;;10.57;2.78;;;;;;;;;;4992583;28;20478;-48
2022/01/31 08:48:04;;;;;;;5.00;1.85;;;;;;;;;;4993157;28;20118;-45
2022/01/31 08:50:30;;;;;;;13.35;2.85;;;;;;;;;;4993358;28;20037;-41
2022/01/31 08:52:56;;;;;;;8.43;2.20;;;;;;;;;;4993177;28;20031;-44
2022/01/31 08:55:23;;;;;;;9.10;2.20;;;;;;;;;;4993324;28;20037;-43
2022/01/31 08:57:52;;;;;;;10.45;3.17;;;;;;;;;;4993124;28;20026;-42
2022/01/31 09:00:19;;;;;;;11.57;2.70;;;;;;;;;;4993718;28;20433;-43
2022/01/31 09:03:00;;;;;;;10.50;2.22;;;;;;;;;;4993276;28;20037;-49
2022/01/31 09:05:25;;;;;;;;;;;;;;;;;;4993523;28;20196;-45
2022/01/31 09:07:50;;;;;;;7.53;2.25;;;;;;;;;;4993365;28;20049;-41
2022/01/31 09:10:18;;;;;;;12.18;2.35;;;;;;;;;;4993037;28;20534;-40
2022/01/31 09:12:44;;;;;;;13.15;2.35;;;;;;;;;;4993020;28;20397;-44
2022/01/31 09:15:12;;;;;;;13.40;2.55;;;;;;;;;;4993173;28;20029;-47
2022/01/31 09:17:41;;;;;;;10.25;2.60;;;;;;;;;;4993190;28;20030;-47
2022/01/31 09:20:08;;;;;;;9.40;2.30;;;;;;;;;;4993750;28;20054;-45
2022/01/31 09:22:33;;;;;;;16.88;2.30;;;;;;;;;;4996902;28;20037;-41
2022/01/31 09:24:59;;;;;;;11.02;2.20;;;;;;;;;;4997245;28;20038;-47
2022/01/31 09:27:24;;;;;;;11.68;4.00;;;;;;;;;;4997158;28;20374;-47
2022/01/31 09:29:50;;;;;;;10.15;2.30;;;;;;;;;;4997175;28;20030;-45
2022/01/31 09:32:20;;;;;;;8.90;2.10;;;;;;;;;;4996661;28;20101;-45
2022/01/31 09:34:46;;;;;;;12.50;2.15;;;;;;;;;;4996740;28;20036;-50
2022/01/31 09:37:12;;;;;;;14.13;3.00;;;;;;;;;;4996988;28;20101;-45
2022/01/31 09:39:37;;;;;;;12.63;2.58;;;;;;;;;;4996827;28;20018;-46
2022/01/31 09:42:08;;;;;;;16.33;6.30;;;;;;;;;;4996910;28;20478;-44
2022/01/31 09:47:19;;;;;;;14.70;2.30;;;;;;;;;;4996821;28;20038;-44
2022/01/31 09:49:45;;;;;;;11.88;2.38;;;;;;;;;;4996440;28;20069;-45
2022/01/31 09:52:10;;;;;;;10.95;2.78;;;;;;;;;;4996400;28;20054;-44
2022/01/31 09:54:37;;;;;;;10.00;2.88;;;;;;;;;;4996394;28;20176;-47
2022/01/31 09:57:02;;;;;;;13.32;2.20;;;;;;;;;;4997063;28;20081;-49
2022/01/31 09:59:28;;;;;;;10.02;2.58;;;;;;;;;;4996416;28;20505;-48
2022/01/31 10:01:55;;;;;;;16.55;3.03;;;;;;;;;;4996201;28;20084;-47
2022/01/31 10:04:35;;;;;;;15.75;3.15;;;;;;;;;;4996456;28;20030;-49
2022/01/31 10:07:02;;;;;;;8.23;2.88;;;;;;;;;;4996567;28;20053;-44
2022/01/31 10:09:30;;;;;;;10.00;2.50;;;;;;;;;;4996453;28;20061;-46
2022/01/31 10:12:05;;;;;;;12.15;2.63;;;;;;;;;;4996047;28;20035;-42
2022/01/31 10:17:34;;;;;;;9.10;2.22;;;;;;;;;;4996297;28;20084;-42
2022/01/31 10:20:03;;;;;;;13.38;3.15;;;;;;;;;;4996320;28;20042;-48
2022/01/31 10:22:31;;;;;;;8.38;2.78;;;;;;;;;;4996202;28;20022;-42
2022/01/31 10:25:02;;;;;;;11.25;2.65;;;;;;;;;;4995957;28;20030;-41
2022/01/31 10:27:34;;;;;;;;;;;;;;;;;;4996223;28;20031;-47
2022/01/31 10:30:05;;;;;;;9.20;2.10;;;;;;;;;;4995905;28;20182;-47
2022/01/31 10:32:35;;;;;;;7.20;2.78;;;;;;;;;;4993784;28;20046;-47
2022/01/31 10:35:11;;;;;;;13.93;3.08;;;;;;;;;;4995822;28;20030;-44
2022/01/31 10:37:43;;;;;;;6.50;2.45;;;;;;;;;;4995922;28;20026;-49
2022/01/31 10:56:56;;;;;;;12.52;3.78;;;;;;;;;;4995299;28;20026;-47
2022/01/31 10:59:32;;;;;;;12.70;4.22;;;;;;;;;;4995278;28;20034;-44
2022/01/31 11:01:59;;;;;;;20.10;5.57;;;;;;;;;;4995154;28;20402;-46
2022/01/31 11:04:30;;;;;;;8.85;3.80;;;;;;;;;;4994970;28;20066;-46
2022/01/31 11:06:59;;;;;;;;;;;;;;;;;;4978352;28;20121;-46
2022/01/31 11:09:25;;;;;;;15.15;4.00;;;;;;;;;;4994951;28;19937;-45
2022/01/31 11:11:50;;;;;;;16.80;3.05;;;;;;;;;;4994984;28;20478;-46
2022/01/31 11:14:17;;;;;;;10.68;3.25;;;;;;;;;;4995055;28;20037;-41
2022/01/31 11:16:48;;;;;;;11.60;2.80;;;;;;;;;;4994736;28;20030;-43
2022/01/31 11:19:15;;;;;;;;;;;;;;;;;;4995222;28;20403;-43
2022/01/31 11:21:46;;;;;;;13.30;2.80;;;;;;;;;;4995081;28;20008;-41
2022/01/31 11:24:20;;;;;;;12.60;3.15;;;;;;;;;;4995022;28;20038;-39
2022/01/31 11:27:06;;;;;;;12.13;2.60;;;;;;;;;;4994951;28;20033;-45
2022/01/31 11:29:35;;;;;;;15.50;3.38;;;;;;;;;;4994669;28;20030;-41
2022/01/31 11:32:01;;;;;;;10.60;2.72;;;;;;;;;;4994319;28;20042;-44
2022/01/31 11:34:27;;;;;;;8.52;2.53;;;;;;;;;;4994561;28;20557;-41
2022/01/31 11:36:53;;;;;;;9.45;2.05;;;;;;;;;;4994515;28;20027;-44
2022/01/31 11:39:19;;;;;;;10.38;2.83;;;;;;;;;;4994655;28;20433;-40
2022/01/31 11:41:58;;;;;;;10.93;2.95;;;;;;;;;;4993109;28;20022;-43
2022/01/31 11:44:44;;;;;;;11.77;3.65;;;;;;;;;;4993754;28;20053;-41
2022/01/31 11:47:09;;;;;;;11.85;2.70;;;;;;;;;;4994640;28;20033;-40
2022/01/31 11:50:13;;;;;;;10.82;2.58;;;;;;;;;;4994267;28;20023;-38
2022/01/31 11:52:49;;;;;;;8.02;2.85;;;;;;;;;;4991805;28;20768;-41
2022/01/31 11:55:17;;;;;;;14.05;3.10;;;;;;;;;;4991873;28;20113;-39
2022/01/31 11:57:51;;;;;;;11.20;3.53;;;;;;;;;;4993138;28;20125;-45
2022/01/31 12:00:20;;;;;;;9.25;2.70;;;;;;;;;;4994169;28;20027;-47
2022/01/31 12:03:01;;;;;;;7.85;2.63;;;;;;;;;;4994166;28;20113;-45
2022/01/31 12:05:30;;;;;;;12.98;3.28;;;;;;;;;;4994216;28;20027;-45
2022/01/31 12:08:16;;;;;;;8.30;2.97;;;;;;;;;;4992702;28;20022;-49
2022/01/31 12:10:47;;;;;;;8.80;2.60;;;;;;;;;;4994210;28;20022;-47
2022/01/31 12:13:46;;;;;;;9.95;2.58;;;;;;;;;;4993810;28;20022;-47
2022/01/31 12:17:08;;;;;;;13.00;2.65;;;;;;;;;;4993996;28;20087;-45
2022/01/31 12:19:46;;;;;;;11.80;2.95;;;;;;;;;;4993432;28;20041;-44
2022/01/31 12:22:51;;;;;;;11.52;3.60;;;;;;;;;;4993999;28;20050;-41
2022/01/31 12:25:29;;;;;;;6.68;2.30;;;;;;;;;;4993704;28;20105;-45
2022/01/31 12:27:56;;;;;;;11.45;2.42;;;;;;;;;;4993787;28;20030;-44
2022/01/31 12:30:35;;;;;;;10.90;2.70;;;;;;;;;;4993629;28;20057;-43
2022/01/31 12:33:01;;;;;;;5.03;1.88;;;;;;;;;;4993803;28;20034;-48
2022/01/31 12:35:37;;;;;;;12.60;2.45;;;;;;;;;;4993417;28;20027;-45
2022/01/31 12:38:06;;;;;;;10.00;2.05;;;;;;;;;;4993716;28;20069;-49
2022/01/31 12:40:40;;;;;;;8.82;2.10;;;;;;;;;;4993446;28;20026;-43
2022/01/31 12:44:03;;;;;;;16.77;2.20;;;;;;;;;;4993416;28;20387;-39
2022/01/31 12:46:10;;;;;;;6.30;1.88;;;;;;;;;;4990240;28;20041;-40
2022/01/31 12:48:36;;;;;;;6.63;2.10;;;;;;;;;;4993273;28;20027;-45
2022/01/31 12:51:05;;;;;;;11.68;2.00;;;;;;;;;;4993450;28;20057;-39
2022/01/31 12:53:39;;;;;;;6.47;1.70;;;;;;;;;;4993214;28;20065;-46
2022/01/31 12:56:24;;;;;;;13.68;2.50;;;;;;;;;;4993033;28;20041;-44
2022/01/31 12:59:14;;;;;;;7.82;2.20;;;;;;;;;;4993167;28;20386;-48
2022/01/31 13:01:49;;;;;;;11.85;2.58;;;;;;;;;;4992610;28;20039;-39
2022/01/31 13:04:21;;;;;;;10.18;2.22;;;;;;;;;;4992979;28;20034;-41
2022/01/31 13:06:46;;;;;;;11.20;2.00;;;;;;;;;;4993346;28;20022;-39
2022/01/31 13:09:20;;;;;;;9.30;2.47;;;;;;;;;;4993028;28;20033;-40
2022/01/31 13:11:59;;;;;;;8.95;2.83;;;;;;;;;;4993272;28;20026;-42
2022/01/31 13:14:30;;;;;;;15.65;2.85;;;;;;;;;;4993099;28;20390;-47
2022/01/31 13:17:13;;;;;;;7.90;2.45;;;;;;;;;;4993305;28;20031;-48
2022/01/31 13:19:41;;;;;;;11.18;2.17;;;;;;;;;;4993258;28;20038;-47
2022/01/31 13:22:17;;;;;;;6.25;2.25;;;;;;;;;;4992865;28;20033;-43
2022/01/31 13:24:46;;;;;;;10.30;2.13;;;;;;;;;;4992910;28;20100;-42
2022/01/31 13:27:18;;;;;;;9.20;2.20;;;;;;;;;;4993114;28;20022;-43
2022/01/31 13:29:48;;;;;;;10.90;2.50;;;;;;;;;;4993134;28;20034;-43
2022/01/31 13:32:18;;;;;;;11.13;2.27;;;;;;;;;;4992624;28;20053;-50
2022/01/31 13:34:55;;;;;;;65.22;26.40;;;;;;;;;;4993072;28;20039;-43
2022/01/31 13:37:46;;;;;;;10.38;2.40;;;;;;;;;;4992879;28;20502;-43
2022/01/31 13:40:36;;;;;;;12.77;3.55;;;;;;;;;;4992816;28;20088;-42
2022/01/31 13:43:25;;;;;;;10.90;3.00;;;;;;;;;;4992735;28;20501;-42
2022/01/31 13:48:58;;;;;;;8.90;2.40;;;;;;;;;;4992599;28;20268;-43
2022/01/31 13:51:47;;;;;;;10.82;2.78;;;;;;;;;;4992869;28;20105;-40
2022/01/31 13:54:17;;;;;;;10.10;2.42;;;;;;;;;;4992713;28;20041;-47
2022/01/31 13:56:58;;;;;;;10.73;2.60;;;;;;;;;;4991421;28;20036;-40
2022/01/31 13:59:26;;;;;;;8.07;2.08;;;;;;;;;;4992924;28;20080;-47
2022/01/31 14:02:11;;;;;;;11.93;2.80;;;;;;;;;;4992540;28;20027;-44
2022/01/31 14:04:41;;;;;;;13.20;2.35;;;;;;;;;;4992733;28;20449;-45
2022/01/31 14:07:42;;;;;;;9.73;3.13;;;;;;;;;;4994564;28;20161;-47
2022/01/31 14:10:37;;;;;;;11.50;2.10;;;;;;;;;;4993844;28;20035;-46
2022/01/31 14:13:10;;;;;;;11.98;3.55;;;;;;;;;;4979267;28;20042;-48
2022/01/31 14:15:46;;;;;;;12.73;1.88;;;;;;;;;;4996189;28;20077;-40
2022/01/31 14:18:19;;;;;;;9.40;2.20;;;;;;;;;;4996306;28;20445;-41
2022/01/31 14:20:49;;;;;;;6.43;2.05;;;;;;;;;;4996280;28;20023;-41
2022/01/31 14:23:16;;;;;;;5.50;2.10;;;;;;;;;;4995860;28;20545;-40
2022/01/31 14:25:46;;;;;;;12.98;2.58;;;;;;;;;;4995852;28;20113;-45
2022/01/31 14:28:13;;;;;;;15.65;2.70;;;;;;;;;;4996208;28;20072;-42
2022/01/31 14:30:50;;;;;;;11.02;2.53;;;;;;;;;;4995444;28;20034;-39
2022/01/31 14:33:21;;;;;;;13.00;2.88;;;;;;;;;;4996020;28;20414;-47
2022/01/31 14:35:47;;;;;;;7.32;2.35;;;;;;;;;;4995849;28;20030;-47
2022/01/31 14:38:22;;;;;;;18.42;2.72;;;;;;;;;;4995636;28;20031;-47
2022/01/31 14:49:13;;;;;;;12.73;2.78;;;;;;;;;;4995787;28;20044;-47
2022/01/31 14:51:40;;;;;;;13.98;2.47;;;;;;;;;;4995570;28;20034;-48
2022/01/31 14:54:09;;;;;;;12.65;2.85;;;;;;;;;;4995602;28;20442;-48
2022/01/31 14:56:36;;;;;;;6.30;2.25;;;;;;;;;;4995513;28;20441;-40
2022/01/31 14:59:03;;;;;;;9.07;2.30;;;;;;;;;;4995480;28;20092;-47
2022/01/31 15:01:29;;;;;;;11.98;3.15;;;;;;;;;;4995520;28;20472;-45
2022/01/31 15:03:54;;;;;;;8.93;2.72;;;;;;;;;;4995089;28;20165;-48
2022/01/31 15:06:20;;;;;;;9.00;2.10;;;;;;;;;;4995478;28;20050;-45
2022/01/31 15:08:46;;;;;;;11.25;2.55;;;;;;;;;;4993830;28;20033;-45
2022/01/31 15:11:12;;;;;;;11.30;3.28;;;;;;;;;;4995128;28;20022;-50
2022/01/31 15:13:39;;;;;;;12.95;3.03;;;;;;;;;;4994845;28;20026;-48
2022/01/31 15:16:07;;;;;;;9.73;2.22;;;;;;;;;;4994909;28;20023;-46
2022/01/31 15:18:38;;;;;;;5.88;1.95;;;;;;;;;;4994800;28;20533;-49
2022/01/31 15:21:05;;;;;;;4.18;1.65;;;;;;;;;;4995174;28;20101;-46
2022/01/31 15:23:38;;;;;;;7.45;2.42;;;;;;;;;;4994721;28;20034;-49